sensor_id;sensor_type;location;lat;lon;timestamp;P1;durP1;ratioP1;P2;durP2;ratioP2
20038;SDS011;21737;42.868;25.320;2024-03-07T00:00:03;17.98;;;6.95;;
20038;SDS011;21737;42.868;25.320;2024-03-07T00:02:40;15.35;;;6.53;;
20038;SDS011;21737;42.868;25.320;2024-03-07T00:05:14;15.15;;;6.60;;
20038;SDS011;21737;42.868;25.320;2024-03-07T00:07:41;17.92;;;8.00;;
20038;SDS011;21737;42.868;25.320;2024-03-07T00:10:08;15.85;;;6.50;;
20038;SDS011;21737;42.868;25.320;2024-03-07T00:12:35;17.35;;;6.82;;
20038;SDS011;21737;42.868;25.320;2024-03-07T00:15:05;15.90;;;5.70;;
20038;SDS011;21737;42.868;25.320;2024-03-07T00:17:37;16.23;;;6.43;;
20038;SDS011;21737;42.868;25.320;2024-03-07T00:20:05;16.73;;;6.82;;
20038;SDS011;21737;42.868;25.320;2024-03-07T00:22:35;17.23;;;7.75;;
20038;SDS011;21737;42.868;25.320;2024-03-07T00:25:01;16.83;;;7.53;;
20038;SDS011;21737;42.868;25.320;2024-03-07T00:27:31;17.98;;;8.15;;
20038;SDS011;21737;42.868;25.320;2024-03-07T00:29:58;18.02;;;6.45;;
20038;SDS011;21737;42.868;25.320;2024-03-07T00:32:25;14.85;;;6.78;;
20038;SDS011;21737;42.868;25.320;2024-03-07T00:34:55;18.33;;;8.38;;
20038;SDS011;21737;42.868;25.320;2024-03-07T00:37:22;17.48;;;7.18;;
20038;SDS011;21737;42.868;25.320;2024-03-07T00:39:50;15.30;;;6.78;;
20038;SDS011;21737;42.868;25.320;2024-03-07T00:42:15;15.10;;;7.88;;
20038;SDS011;21737;42.868;25.320;2024-03-07T00:44:43;19.05;;;8.20;;
20038;SDS011;21737;42.868;25.320;2024-03-07T00:47:09;18.40;;;7.55;;
20038;SDS011;21737;42.868;25.320;2024-03-07T00:49:36;17.75;;;7.30;;
20038;SDS011;21737;42.868;25.320;2024-03-07T00:52:02;16.40;;;7.53;;
20038;SDS011;21737;42.868;25.320;2024-03-07T00:54:28;18.13;;;6.88;;
20038;SDS011;21737;42.868;25.320;2024-03-07T00:56:55;16.70;;;6.93;;
20038;SDS011;21737;42.868;25.320;2024-03-07T00:59:21;15.50;;;6.85;;
20038;SDS011;21737;42.868;25.320;2024-03-07T01:01:47;16.70;;;6.97;;
20038;SDS011;21737;42.868;25.320;2024-03-07T01:04:14;17.35;;;6.97;;
20038;SDS011;21737;42.868;25.320;2024-03-07T01:06:40;18.73;;;8.23;;
20038;SDS011;21737;42.868;25.320;2024-03-07T01:09:06;15.32;;;6.70;;
20038;SDS011;21737;42.868;25.320;2024-03-07T01:11:39;14.20;;;6.57;;
20038;SDS011;21737;42.868;25.320;2024-03-07T01:14:10;16.10;;;7.53;;
20038;SDS011;21737;42.868;25.320;2024-03-07T01:16:36;16.75;;;7.10;;
20038;SDS011;21737;42.868;25.320;2024-03-07T01:19:02;13.63;;;6.90;;
20038;SDS011;21737;42.868;25.320;2024-03-07T01:21:31;13.68;;;5.97;;
20038;SDS011;21737;42.868;25.320;2024-03-07T01:24:01;20.17;;;8.45;;
20038;SDS011;21737;42.868;25.320;2024-03-07T01:26:36;11.35;;;6.15;;
20038;SDS011;21737;42.868;25.320;2024-03-07T01:29:02;13.70;;;5.88;;
20038;SDS011;21737;42.868;25.320;2024-03-07T01:31:29;17.90;;;7.10;;
20038;SDS011;21737;42.868;25.320;2024-03-07T01:33:55;16.20;;;6.38;;
20038;SDS011;21737;42.868;25.320;2024-03-07T01:36:22;17.02;;;7.60;;
20038;SDS011;21737;42.868;25.320;2024-03-07T01:38:48;19.50;;;7.57;;
20038;SDS011;21737;42.868;25.320;2024-03-07T01:41:14;19.83;;;7.93;;
20038;SDS011;21737;42.868;25.320;2024-03-07T01:43:41;15.32;;;7.07;;
20038;SDS011;21737;42.868;25.320;2024-03-07T01:46:08;18.88;;;7.25;;
20038;SDS011;21737;42.868;25.320;2024-03-07T01:48:35;14.80;;;6.63;;
20038;SDS011;21737;42.868;25.320;2024-03-07T01:51:03;19.85;;;7.90;;
20038;SDS011;21737;42.868;25.320;2024-03-07T01:53:30;17.65;;;7.43;;
20038;SDS011;21737;42.868;25.320;2024-03-07T01:55:58;15.10;;;6.38;;
20038;SDS011;21737;42.868;25.320;2024-03-07T01:58:26;15.52;;;6.70;;
20038;SDS011;21737;42.868;25.320;2024-03-07T02:00:53;15.10;;;6.10;;
20038;SDS011;21737;42.868;25.320;2024-03-07T02:03:18;18.33;;;7.88;;
20038;SDS011;21737;42.868;25.320;2024-03-07T02:05:44;14.80;;;6.32;;
20038;SDS011;21737;42.868;25.320;2024-03-07T02:08:11;18.73;;;6.85;;
20038;SDS011;21737;42.868;25.320;2024-03-07T02:10:37;20.73;;;6.72;;
20038;SDS011;21737;42.868;25.320;2024-03-07T02:13:04;16.42;;;7.18;;
20038;SDS011;21737;42.868;25.320;2024-03-07T02:15:30;16.75;;;7.38;;
20038;SDS011;21737;42.868;25.320;2024-03-07T02:17:56;16.38;;;7.65;;
20038;SDS011;21737;42.868;25.320;2024-03-07T02:20:24;20.27;;;8.18;;
20038;SDS011;21737;42.868;25.320;2024-03-07T02:22:50;15.85;;;6.30;;
20038;SDS011;21737;42.868;25.320;2024-03-07T02:25:16;18.65;;;7.93;;
20038;SDS011;21737;42.868;25.320;2024-03-07T02:27:49;19.23;;;8.10;;
20038;SDS011;21737;42.868;25.320;2024-03-07T02:30:15;18.25;;;7.88;;
20038;SDS011;21737;42.868;25.320;2024-03-07T02:32:45;19.67;;;7.93;;
20038;SDS011;21737;42.868;25.320;2024-03-07T02:35:17;14.93;;;7.43;;
20038;SDS011;21737;42.868;25.320;2024-03-07T02:37:44;20.25;;;7.55;;
20038;SDS011;21737;42.868;25.320;2024-03-07T02:40:11;16.40;;;8.20;;
20038;SDS011;21737;42.868;25.320;2024-03-07T02:42:38;15.50;;;7.68;;
20038;SDS011;21737;42.868;25.320;2024-03-07T02:45:04;18.65;;;7.43;;
20038;SDS011;21737;42.868;25.320;2024-03-07T02:47:30;22.98;;;9.13;;
20038;SDS011;21737;42.868;25.320;2024-03-07T02:49:56;17.58;;;8.63;;
20038;SDS011;21737;42.868;25.320;2024-03-07T02:52:22;22.50;;;9.27;;
20038;SDS011;21737;42.868;25.320;2024-03-07T02:54:48;21.30;;;8.25;;
20038;SDS011;21737;42.868;25.320;2024-03-07T02:57:15;23.00;;;9.43;;
20038;SDS011;21737;42.868;25.320;2024-03-07T02:59:42;18.33;;;9.20;;
20038;SDS011;21737;42.868;25.320;2024-03-07T03:02:09;21.45;;;9.68;;
20038;SDS011;21737;42.868;25.320;2024-03-07T03:04:35;19.92;;;9.18;;
20038;SDS011;21737;42.868;25.320;2024-03-07T03:07:01;23.17;;;9.70;;
20038;SDS011;21737;42.868;25.320;2024-03-07T03:09:27;21.33;;;9.20;;
20038;SDS011;21737;42.868;25.320;2024-03-07T03:11:53;23.98;;;9.73;;
20038;SDS011;21737;42.868;25.320;2024-03-07T03:14:19;23.30;;;8.90;;
20038;SDS011;21737;42.868;25.320;2024-03-07T03:16:46;20.42;;;8.77;;
20038;SDS011;21737;42.868;25.320;2024-03-07T03:19:12;19.50;;;8.40;;
20038;SDS011;21737;42.868;25.320;2024-03-07T03:21:38;24.50;;;11.10;;
20038;SDS011;21737;42.868;25.320;2024-03-07T03:24:05;18.65;;;9.00;;
20038;SDS011;21737;42.868;25.320;2024-03-07T03:26:32;19.83;;;8.00;;
20038;SDS011;21737;42.868;25.320;2024-03-07T03:28:59;18.25;;;8.68;;
20038;SDS011;21737;42.868;25.320;2024-03-07T03:31:25;19.98;;;9.05;;
20038;SDS011;21737;42.868;25.320;2024-03-07T03:33:52;19.17;;;8.65;;
20038;SDS011;21737;42.868;25.320;2024-03-07T03:36:20;18.23;;;8.15;;
20038;SDS011;21737;42.868;25.320;2024-03-07T03:38:47;22.98;;;9.15;;
20038;SDS011;21737;42.868;25.320;2024-03-07T03:41:16;20.33;;;9.55;;
20038;SDS011;21737;42.868;25.320;2024-03-07T03:43:42;20.77;;;8.68;;
20038;SDS011;21737;42.868;25.320;2024-03-07T03:46:12;17.02;;;7.93;;
20038;SDS011;21737;42.868;25.320;2024-03-07T03:48:40;22.05;;;8.90;;
20038;SDS011;21737;42.868;25.320;2024-03-07T03:51:09;20.40;;;8.68;;
20038;SDS011;21737;42.868;25.320;2024-03-07T03:53:36;22.67;;;10.05;;
20038;SDS011;21737;42.868;25.320;2024-03-07T03:56:02;16.88;;;8.02;;
20038;SDS011;21737;42.868;25.320;2024-03-07T03:58:30;19.35;;;9.45;;
20038;SDS011;21737;42.868;25.320;2024-03-07T04:00:57;25.92;;;10.88;;
20038;SDS011;21737;42.868;25.320;2024-03-07T04:03:26;16.25;;;7.22;;
20038;SDS011;21737;42.868;25.320;2024-03-07T04:05:52;18.55;;;8.25;;
20038;SDS011;21737;42.868;25.320;2024-03-07T04:08:18;22.42;;;9.18;;
20038;SDS011;21737;42.868;25.320;2024-03-07T04:10:46;17.45;;;7.30;;
20038;SDS011;21737;42.868;25.320;2024-03-07T04:13:13;22.42;;;9.57;;
20038;SDS011;21737;42.868;25.320;2024-03-07T04:15:40;20.35;;;8.32;;
20038;SDS011;21737;42.868;25.320;2024-03-07T04:18:06;15.98;;;7.85;;
20038;SDS011;21737;42.868;25.320;2024-03-07T04:20:33;22.17;;;9.07;;
20038;SDS011;21737;42.868;25.320;2024-03-07T04:23:00;22.98;;;10.13;;
20038;SDS011;21737;42.868;25.320;2024-03-07T04:25:27;22.25;;;9.68;;
20038;SDS011;21737;42.868;25.320;2024-03-07T04:27:54;23.73;;;10.32;;
20038;SDS011;21737;42.868;25.320;2024-03-07T04:30:20;21.55;;;8.40;;
20038;SDS011;21737;42.868;25.320;2024-03-07T04:32:46;21.27;;;9.85;;
20038;SDS011;21737;42.868;25.320;2024-03-07T04:35:12;27.05;;;11.13;;
20038;SDS011;21737;42.868;25.320;2024-03-07T04:37:37;23.02;;;10.25;;
20038;SDS011;21737;42.868;25.320;2024-03-07T04:40:08;28.27;;;10.55;;
20038;SDS011;21737;42.868;25.320;2024-03-07T04:42:41;23.38;;;8.95;;
20038;SDS011;21737;42.868;25.320;2024-03-07T04:45:09;16.80;;;7.85;;
20038;SDS011;21737;42.868;25.320;2024-03-07T04:47:39;20.48;;;8.70;;
20038;SDS011;21737;42.868;25.320;2024-03-07T04:50:07;21.38;;;9.52;;
20038;SDS011;21737;42.868;25.320;2024-03-07T04:52:36;24.27;;;10.07;;
20038;SDS011;21737;42.868;25.320;2024-03-07T04:55:04;22.00;;;9.90;;
20038;SDS011;21737;42.868;25.320;2024-03-07T04:57:34;25.00;;;10.05;;
20038;SDS011;21737;42.868;25.320;2024-03-07T05:00:02;24.40;;;9.18;;
20038;SDS011;21737;42.868;25.320;2024-03-07T05:02:33;25.08;;;10.35;;
20038;SDS011;21737;42.868;25.320;2024-03-07T05:05:00;23.85;;;10.85;;
20038;SDS011;21737;42.868;25.320;2024-03-07T05:07:26;18.20;;;8.05;;
20038;SDS011;21737;42.868;25.320;2024-03-07T05:09:52;24.05;;;11.02;;
20038;SDS011;21737;42.868;25.320;2024-03-07T05:12:19;28.77;;;10.63;;
20038;SDS011;21737;42.868;25.320;2024-03-07T05:14:46;25.25;;;11.18;;
20038;SDS011;21737;42.868;25.320;2024-03-07T05:17:12;22.52;;;11.15;;
20038;SDS011;21737;42.868;25.320;2024-03-07T05:19:37;23.52;;;10.57;;
20038;SDS011;21737;42.868;25.320;2024-03-07T05:22:03;20.30;;;9.00;;
20038;SDS011;21737;42.868;25.320;2024-03-07T05:24:30;19.73;;;9.52;;
20038;SDS011;21737;42.868;25.320;2024-03-07T05:26:58;22.58;;;9.00;;
20038;SDS011;21737;42.868;25.320;2024-03-07T05:29:24;20.92;;;9.82;;
20038;SDS011;21737;42.868;25.320;2024-03-07T05:31:50;18.00;;;8.93;;
20038;SDS011;21737;42.868;25.320;2024-03-07T05:34:16;16.63;;;8.30;;
20038;SDS011;21737;42.868;25.320;2024-03-07T05:36:46;17.92;;;7.15;;
20038;SDS011;21737;42.868;25.320;2024-03-07T05:39:13;20.20;;;8.10;;
20038;SDS011;21737;42.868;25.320;2024-03-07T05:41:41;13.25;;;5.85;;
20038;SDS011;21737;42.868;25.320;2024-03-07T05:44:10;14.38;;;6.28;;
20038;SDS011;21737;42.868;25.320;2024-03-07T05:46:36;16.42;;;7.20;;
20038;SDS011;21737;42.868;25.320;2024-03-07T05:49:09;9.30;;;5.07;;
20038;SDS011;21737;42.868;25.320;2024-03-07T05:51:35;13.77;;;6.60;;
20038;SDS011;21737;42.868;25.320;2024-03-07T05:54:02;15.73;;;6.32;;
20038;SDS011;21737;42.868;25.320;2024-03-07T05:56:34;13.25;;;6.93;;
20038;SDS011;21737;42.868;25.320;2024-03-07T05:59:03;11.45;;;4.93;;
20038;SDS011;21737;42.868;25.320;2024-03-07T06:01:31;12.18;;;5.47;;
20038;SDS011;21737;42.868;25.320;2024-03-07T06:04:00;15.38;;;6.60;;
20038;SDS011;21737;42.868;25.320;2024-03-07T06:06:28;14.63;;;5.93;;
20038;SDS011;21737;42.868;25.320;2024-03-07T06:08:58;10.10;;;4.50;;
20038;SDS011;21737;42.868;25.320;2024-03-07T06:11:25;13.23;;;5.90;;
20038;SDS011;21737;42.868;25.320;2024-03-07T06:13:51;10.52;;;4.72;;
20038;SDS011;21737;42.868;25.320;2024-03-07T06:16:18;9.27;;;4.90;;
20038;SDS011;21737;42.868;25.320;2024-03-07T06:18:45;9.52;;;4.00;;
20038;SDS011;21737;42.868;25.320;2024-03-07T06:21:12;9.82;;;4.75;;
20038;SDS011;21737;42.868;25.320;2024-03-07T06:23:39;12.38;;;5.90;;
20038;SDS011;21737;42.868;25.320;2024-03-07T06:26:04;9.50;;;3.97;;
20038;SDS011;21737;42.868;25.320;2024-03-07T06:28:41;7.88;;;4.47;;
20038;SDS011;21737;42.868;25.320;2024-03-07T06:31:08;13.18;;;6.20;;
20038;SDS011;21737;42.868;25.320;2024-03-07T06:33:34;33.20;;;14.88;;
20038;SDS011;21737;42.868;25.320;2024-03-07T06:36:01;19.45;;;11.05;;
20038;SDS011;21737;42.868;25.320;2024-03-07T06:38:27;17.20;;;7.75;;
20038;SDS011;21737;42.868;25.320;2024-03-07T06:40:54;17.45;;;7.28;;
20038;SDS011;21737;42.868;25.320;2024-03-07T06:43:20;16.88;;;8.38;;
20038;SDS011;21737;42.868;25.320;2024-03-07T06:45:46;14.65;;;7.60;;
20038;SDS011;21737;42.868;25.320;2024-03-07T06:48:12;14.25;;;7.10;;
20038;SDS011;21737;42.868;25.320;2024-03-07T06:50:40;12.82;;;7.10;;
20038;SDS011;21737;42.868;25.320;2024-03-07T06:53:07;7.18;;;3.30;;
20038;SDS011;21737;42.868;25.320;2024-03-07T06:55:35;7.80;;;3.00;;
20038;SDS011;21737;42.868;25.320;2024-03-07T06:58:01;3.95;;;1.95;;
20038;SDS011;21737;42.868;25.320;2024-03-07T07:00:30;5.47;;;2.53;;
20038;SDS011;21737;42.868;25.320;2024-03-07T07:03:03;5.35;;;2.92;;
20038;SDS011;21737;42.868;25.320;2024-03-07T07:05:31;8.30;;;3.50;;
20038;SDS011;21737;42.868;25.320;2024-03-07T07:07:57;5.85;;;2.58;;
20038;SDS011;21737;42.868;25.320;2024-03-07T07:10:23;5.80;;;3.55;;
20038;SDS011;21737;42.868;25.320;2024-03-07T07:12:51;7.28;;;3.75;;
20038;SDS011;21737;42.868;25.320;2024-03-07T07:15:20;10.38;;;5.15;;
20038;SDS011;21737;42.868;25.320;2024-03-07T07:17:48;9.00;;;4.65;;
20038;SDS011;21737;42.868;25.320;2024-03-07T07:20:18;22.42;;;10.20;;
20038;SDS011;21737;42.868;25.320;2024-03-07T07:22:47;22.08;;;11.45;;
20038;SDS011;21737;42.868;25.320;2024-03-07T07:25:13;21.35;;;11.85;;
20038;SDS011;21737;42.868;25.320;2024-03-07T07:27:49;27.05;;;10.82;;
20038;SDS011;21737;42.868;25.320;2024-03-07T07:30:31;20.10;;;10.68;;
20038;SDS011;21737;42.868;25.320;2024-03-07T07:32:58;23.50;;;11.27;;
20038;SDS011;21737;42.868;25.320;2024-03-07T07:35:27;23.63;;;10.75;;
20038;SDS011;21737;42.868;25.320;2024-03-07T07:37:52;25.67;;;11.65;;
20038;SDS011;21737;42.868;25.320;2024-03-07T07:40:23;24.58;;;11.55;;
20038;SDS011;21737;42.868;25.320;2024-03-07T07:45:18;19.95;;;10.07;;
20038;SDS011;21737;42.868;25.320;2024-03-07T07:47:48;28.60;;;12.07;;
20038;SDS011;21737;42.868;25.320;2024-03-07T07:50:16;26.45;;;11.80;;
20038;SDS011;21737;42.868;25.320;2024-03-07T07:52:45;26.85;;;11.70;;
20038;SDS011;21737;42.868;25.320;2024-03-07T07:55:19;25.15;;;11.43;;
20038;SDS011;21737;42.868;25.320;2024-03-07T07:57:47;26.50;;;12.75;;
20038;SDS011;21737;42.868;25.320;2024-03-07T08:00:18;27.63;;;11.82;;
20038;SDS011;21737;42.868;25.320;2024-03-07T08:02:58;23.85;;;11.40;;
20038;SDS011;21737;42.868;25.320;2024-03-07T08:05:35;26.60;;;11.95;;
20038;SDS011;21737;42.868;25.320;2024-03-07T08:08:03;26.45;;;11.68;;
20038;SDS011;21737;42.868;25.320;2024-03-07T08:10:33;25.20;;;11.20;;
20038;SDS011;21737;42.868;25.320;2024-03-07T08:13:01;25.17;;;12.68;;
20038;SDS011;21737;42.868;25.320;2024-03-07T08:15:29;31.30;;;14.50;;
20038;SDS011;21737;42.868;25.320;2024-03-07T08:17:56;5.97;;;3.30;;
20038;SDS011;21737;42.868;25.320;2024-03-07T08:20:23;3.85;;;2.08;;
20038;SDS011;21737;42.868;25.320;2024-03-07T08:22:51;5.10;;;1.80;;
20038;SDS011;21737;42.868;25.320;2024-03-07T08:25:23;5.60;;;2.35;;
20038;SDS011;21737;42.868;25.320;2024-03-07T08:27:51;4.57;;;2.15;;
20038;SDS011;21737;42.868;25.320;2024-03-07T08:30:20;2.22;;;1.38;;
20038;SDS011;21737;42.868;25.320;2024-03-07T08:32:48;3.42;;;1.90;;
20038;SDS011;21737;42.868;25.320;2024-03-07T08:35:18;2.47;;;1.38;;
20038;SDS011;21737;42.868;25.320;2024-03-07T08:37:46;3.13;;;1.45;;
20038;SDS011;21737;42.868;25.320;2024-03-07T08:40:20;3.70;;;1.67;;
20038;SDS011;21737;42.868;25.320;2024-03-07T08:42:50;3.85;;;1.73;;
20038;SDS011;21737;42.868;25.320;2024-03-07T08:45:21;3.33;;;1.80;;
20038;SDS011;21737;42.868;25.320;2024-03-07T08:47:48;4.18;;;1.77;;
20038;SDS011;21737;42.868;25.320;2024-03-07T08:50:16;4.72;;;2.03;;
20038;SDS011;21737;42.868;25.320;2024-03-07T08:52:45;5.10;;;2.30;;
20038;SDS011;21737;42.868;25.320;2024-03-07T08:55:14;3.08;;;1.80;;
20038;SDS011;21737;42.868;25.320;2024-03-07T09:00:19;3.85;;;1.92;;
20038;SDS011;21737;42.868;25.320;2024-03-07T09:02:53;5.72;;;2.42;;
20038;SDS011;21737;42.868;25.320;2024-03-07T09:05:23;6.35;;;2.42;;
20038;SDS011;21737;42.868;25.320;2024-03-07T09:07:50;4.38;;;2.38;;
20038;SDS011;21737;42.868;25.320;2024-03-07T09:10:17;5.45;;;2.30;;
20038;SDS011;21737;42.868;25.320;2024-03-07T09:12:43;4.82;;;2.65;;
20038;SDS011;21737;42.868;25.320;2024-03-07T09:15:10;7.00;;;2.85;;
20038;SDS011;21737;42.868;25.320;2024-03-07T09:17:38;3.45;;;1.75;;
20038;SDS011;21737;42.868;25.320;2024-03-07T09:20:13;3.80;;;1.90;;
20038;SDS011;21737;42.868;25.320;2024-03-07T09:22:43;4.72;;;2.15;;
20038;SDS011;21737;42.868;25.320;2024-03-07T09:25:10;4.55;;;2.22;;
20038;SDS011;21737;42.868;25.320;2024-03-07T09:27:39;4.05;;;2.13;;
20038;SDS011;21737;42.868;25.320;2024-03-07T09:30:06;4.53;;;2.20;;
20038;SDS011;21737;42.868;25.320;2024-03-07T09:32:40;5.20;;;2.72;;
20038;SDS011;21737;42.868;25.320;2024-03-07T09:35:07;4.18;;;2.33;;
20038;SDS011;21737;42.868;25.320;2024-03-07T09:37:38;3.75;;;1.92;;
20038;SDS011;21737;42.868;25.320;2024-03-07T09:40:06;4.75;;;1.70;;
20038;SDS011;21737;42.868;25.320;2024-03-07T09:42:34;8.10;;;1.90;;
20038;SDS011;21737;42.868;25.320;2024-03-07T09:45:07;3.60;;;1.75;;
20038;SDS011;21737;42.868;25.320;2024-03-07T09:47:37;2.88;;;1.40;;
20038;SDS011;21737;42.868;25.320;2024-03-07T09:50:05;3.38;;;1.50;;
20038;SDS011;21737;42.868;25.320;2024-03-07T09:52:33;3.20;;;1.65;;
20038;SDS011;21737;42.868;25.320;2024-03-07T09:55:01;3.35;;;1.52;;
20038;SDS011;21737;42.868;25.320;2024-03-07T09:57:29;2.22;;;1.20;;
20038;SDS011;21737;42.868;25.320;2024-03-07T10:00:00;4.85;;;1.88;;
20038;SDS011;21737;42.868;25.320;2024-03-07T10:02:29;3.45;;;1.88;;
20038;SDS011;21737;42.868;25.320;2024-03-07T10:04:58;3.33;;;1.98;;
20038;SDS011;21737;42.868;25.320;2024-03-07T10:07:28;3.55;;;1.67;;
20038;SDS011;21737;42.868;25.320;2024-03-07T10:09:54;3.03;;;2.00;;
20038;SDS011;21737;42.868;25.320;2024-03-07T10:12:23;3.42;;;2.08;;
20038;SDS011;21737;42.868;25.320;2024-03-07T10:14:49;4.80;;;2.30;;
20038;SDS011;21737;42.868;25.320;2024-03-07T10:17:25;4.00;;;1.65;;
20038;SDS011;21737;42.868;25.320;2024-03-07T10:19:51;4.03;;;1.95;;
20038;SDS011;21737;42.868;25.320;2024-03-07T10:22:18;3.90;;;2.03;;
20038;SDS011;21737;42.868;25.320;2024-03-07T10:24:52;4.38;;;2.35;;
20038;SDS011;21737;42.868;25.320;2024-03-07T10:27:21;5.93;;;2.17;;
20038;SDS011;21737;42.868;25.320;2024-03-07T10:29:48;4.68;;;2.38;;
20038;SDS011;21737;42.868;25.320;2024-03-07T10:32:20;5.53;;;2.33;;
20038;SDS011;21737;42.868;25.320;2024-03-07T10:34:50;7.53;;;2.60;;
20038;SDS011;21737;42.868;25.320;2024-03-07T10:37:17;4.35;;;2.60;;
20038;SDS011;21737;42.868;25.320;2024-03-07T10:39:49;4.85;;;2.78;;
20038;SDS011;21737;42.868;25.320;2024-03-07T10:42:15;6.22;;;3.08;;
20038;SDS011;21737;42.868;25.320;2024-03-07T10:44:45;4.72;;;2.63;;
20038;SDS011;21737;42.868;25.320;2024-03-07T10:47:20;5.50;;;2.83;;
20038;SDS011;21737;42.868;25.320;2024-03-07T10:55:24;7.57;;;3.72;;
20038;SDS011;21737;42.868;25.320;2024-03-07T10:58:02;6.18;;;3.40;;
20038;SDS011;21737;42.868;25.320;2024-03-07T11:00:37;6.35;;;3.58;;
20038;SDS011;21737;42.868;25.320;2024-03-07T11:03:11;9.70;;;3.38;;
20038;SDS011;21737;42.868;25.320;2024-03-07T11:05:37;7.00;;;3.95;;
20038;SDS011;21737;42.868;25.320;2024-03-07T11:08:05;5.68;;;3.35;;
20038;SDS011;21737;42.868;25.320;2024-03-07T11:10:37;6.63;;;4.07;;
20038;SDS011;21737;42.868;25.320;2024-03-07T11:13:04;6.80;;;3.67;;
20038;SDS011;21737;42.868;25.320;2024-03-07T11:15:35;8.75;;;4.15;;
20038;SDS011;21737;42.868;25.320;2024-03-07T11:18:03;6.13;;;3.55;;
20038;SDS011;21737;42.868;25.320;2024-03-07T11:20:37;7.10;;;3.85;;
20038;SDS011;21737;42.868;25.320;2024-03-07T11:26:07;7.10;;;3.65;;
20038;SDS011;21737;42.868;25.320;2024-03-07T11:28:34;10.88;;;4.50;;
20038;SDS011;21737;42.868;25.320;2024-03-07T11:34:12;10.88;;;4.85;;
20038;SDS011;21737;42.868;25.320;2024-03-07T11:36:43;7.72;;;4.75;;
20038;SDS011;21737;42.868;25.320;2024-03-07T11:42:19;12.05;;;5.30;;
20038;SDS011;21737;42.868;25.320;2024-03-07T11:44:47;7.53;;;4.40;;
20038;SDS011;21737;42.868;25.320;2024-03-07T11:47:14;9.10;;;4.63;;
20038;SDS011;21737;42.868;25.320;2024-03-07T11:49:44;7.05;;;3.67;;
20038;SDS011;21737;42.868;25.320;2024-03-07T11:52:16;9.55;;;4.95;;
20038;SDS011;21737;42.868;25.320;2024-03-07T11:54:42;8.30;;;4.75;;
20038;SDS011;21737;42.868;25.320;2024-03-07T11:57:11;7.30;;;3.92;;
20038;SDS011;21737;42.868;25.320;2024-03-07T11:59:42;8.52;;;4.82;;
20038;SDS011;21737;42.868;25.320;2024-03-07T12:02:14;9.90;;;4.97;;
20038;SDS011;21737;42.868;25.320;2024-03-07T12:04:41;9.85;;;4.75;;
20038;SDS011;21737;42.868;25.320;2024-03-07T12:07:07;11.05;;;4.43;;
20038;SDS011;21737;42.868;25.320;2024-03-07T12:09:44;9.63;;;4.03;;
20038;SDS011;21737;42.868;25.320;2024-03-07T12:12:20;8.95;;;4.57;;
20038;SDS011;21737;42.868;25.320;2024-03-07T12:14:48;8.73;;;4.03;;
20038;SDS011;21737;42.868;25.320;2024-03-07T12:17:17;11.80;;;5.65;;
20038;SDS011;21737;42.868;25.320;2024-03-07T12:19:44;9.30;;;4.72;;
20038;SDS011;21737;42.868;25.320;2024-03-07T12:22:12;7.28;;;3.90;;
20038;SDS011;21737;42.868;25.320;2024-03-07T12:24:39;8.90;;;4.13;;
20038;SDS011;21737;42.868;25.320;2024-03-07T12:27:09;8.25;;;4.88;;
20038;SDS011;21737;42.868;25.320;2024-03-07T12:29:40;6.88;;;3.95;;
20038;SDS011;21737;42.868;25.320;2024-03-07T12:34:45;5.18;;;2.83;;
20038;SDS011;21737;42.868;25.320;2024-03-07T12:37:13;8.25;;;4.70;;
20038;SDS011;21737;42.868;25.320;2024-03-07T12:39:42;7.40;;;4.07;;
20038;SDS011;21737;42.868;25.320;2024-03-07T12:42:17;8.10;;;4.50;;
20038;SDS011;21737;42.868;25.320;2024-03-07T12:44:47;7.68;;;4.32;;
20038;SDS011;21737;42.868;25.320;2024-03-07T12:47:17;7.72;;;3.78;;
20038;SDS011;21737;42.868;25.320;2024-03-07T12:49:43;9.60;;;4.97;;
20038;SDS011;21737;42.868;25.320;2024-03-07T12:52:10;7.82;;;4.18;;
20038;SDS011;21737;42.868;25.320;2024-03-07T12:54:46;7.72;;;4.25;;
20038;SDS011;21737;42.868;25.320;2024-03-07T12:57:13;11.57;;;4.50;;
20038;SDS011;21737;42.868;25.320;2024-03-07T12:59:40;9.20;;;4.00;;
20038;SDS011;21737;42.868;25.320;2024-03-07T13:02:10;8.63;;;4.43;;
20038;SDS011;21737;42.868;25.320;2024-03-07T13:07:06;11.88;;;4.30;;
20038;SDS011;21737;42.868;25.320;2024-03-07T13:09:33;11.95;;;5.10;;
20038;SDS011;21737;42.868;25.320;2024-03-07T13:12:00;9.68;;;3.67;;
20038;SDS011;21737;42.868;25.320;2024-03-07T13:14:30;6.57;;;3.75;;
20038;SDS011;21737;42.868;25.320;2024-03-07T13:16:59;9.48;;;4.03;;
20038;SDS011;21737;42.868;25.320;2024-03-07T13:19:30;8.85;;;4.25;;
20038;SDS011;21737;42.868;25.320;2024-03-07T13:22:03;11.77;;;4.22;;
20038;SDS011;21737;42.868;25.320;2024-03-07T13:24:46;10.02;;;4.57;;
20038;SDS011;21737;42.868;25.320;2024-03-07T13:27:13;9.32;;;4.40;;
20038;SDS011;21737;42.868;25.320;2024-03-07T13:29:45;8.80;;;4.07;;
20038;SDS011;21737;42.868;25.320;2024-03-07T13:32:11;6.72;;;3.75;;
20038;SDS011;21737;42.868;25.320;2024-03-07T13:34:40;7.50;;;3.95;;
20038;SDS011;21737;42.868;25.320;2024-03-07T13:37:06;11.63;;;5.05;;
20038;SDS011;21737;42.868;25.320;2024-03-07T13:39:37;8.18;;;3.63;;
20038;SDS011;21737;42.868;25.320;2024-03-07T13:42:03;6.80;;;3.67;;
20038;SDS011;21737;42.868;25.320;2024-03-07T13:44:30;8.60;;;3.85;;
20038;SDS011;21737;42.868;25.320;2024-03-07T13:46:56;8.95;;;3.40;;
20038;SDS011;21737;42.868;25.320;2024-03-07T13:49:25;10.80;;;4.03;;
20038;SDS011;21737;42.868;25.320;2024-03-07T13:51:53;12.52;;;4.53;;
20038;SDS011;21737;42.868;25.320;2024-03-07T13:54:26;7.60;;;3.65;;
20038;SDS011;21737;42.868;25.320;2024-03-07T14:23:11;4.90;;;2.55;;
20038;SDS011;21737;42.868;25.320;2024-03-07T14:29:00;4.03;;;1.92;;
20038;SDS011;21737;42.868;25.320;2024-03-07T14:31:40;4.32;;;1.70;;
20038;SDS011;21737;42.868;25.320;2024-03-07T14:34:11;4.60;;;1.95;;
20038;SDS011;21737;42.868;25.320;2024-03-07T14:36:46;5.97;;;2.08;;
20038;SDS011;21737;42.868;25.320;2024-03-07T14:39:18;4.82;;;2.60;;
20038;SDS011;21737;42.868;25.320;2024-03-07T14:44:36;6.00;;;2.65;;
20038;SDS011;21737;42.868;25.320;2024-03-07T14:47:07;6.18;;;2.85;;
20038;SDS011;21737;42.868;25.320;2024-03-07T14:49:37;6.57;;;2.50;;
20038;SDS011;21737;42.868;25.320;2024-03-07T14:52:05;7.10;;;3.33;;
20038;SDS011;21737;42.868;25.320;2024-03-07T14:54:37;10.70;;;4.72;;
20038;SDS011;21737;42.868;25.320;2024-03-07T14:57:05;6.78;;;3.15;;
20038;SDS011;21737;42.868;25.320;2024-03-07T14:59:33;5.95;;;2.70;;
20038;SDS011;21737;42.868;25.320;2024-03-07T15:01:59;6.55;;;2.97;;
20038;SDS011;21737;42.868;25.320;2024-03-07T15:04:30;11.45;;;3.63;;
20038;SDS011;21737;42.868;25.320;2024-03-07T15:06:58;11.48;;;4.07;;
20038;SDS011;21737;42.868;25.320;2024-03-07T15:09:28;6.13;;;3.63;;
20038;SDS011;21737;42.868;25.320;2024-03-07T15:11:56;6.95;;;3.38;;
20038;SDS011;21737;42.868;25.320;2024-03-07T15:14:23;6.55;;;3.10;;
20038;SDS011;21737;42.868;25.320;2024-03-07T15:16:49;6.32;;;3.20;;
20038;SDS011;21737;42.868;25.320;2024-03-07T15:19:16;7.68;;;3.65;;
20038;SDS011;21737;42.868;25.320;2024-03-07T15:21:43;10.30;;;4.65;;
20038;SDS011;21737;42.868;25.320;2024-03-07T15:24:09;7.00;;;3.13;;
20038;SDS011;21737;42.868;25.320;2024-03-07T15:26:36;16.38;;;5.88;;
20038;SDS011;21737;42.868;25.320;2024-03-07T15:29:02;11.27;;;5.22;;